EST,Max TemperatureF,Mean TemperatureF,Min TemperatureF,Max Dew PointF,MeanDew PointF,Min DewpointF,Max Humidity, Mean Humidity, Min Humidity, Max Sea Level PressureIn, Mean Sea Level PressureIn, Min Sea Level PressureIn, Max VisibilityMiles, Mean VisibilityMiles, Min VisibilityMiles, Max Wind SpeedMPH, Mean Wind SpeedMPH, Max Gust SpeedMPH,PrecipitationIn, CloudCover, Events, WindDirDegrees
2012-12-1,48,44,39,45,37,30,89,80,70,30.54,30.49,30.43,10,10,8,16,9,22,0.00,8,,43
2012-12-2,54,46,39,50,44,37,100,90,71,30.41,30.31,30.14,10,4,0,14,5,22,0.01,4,Fog-Rain,267
2012-12-3,59,44,30,49,43,28,100,87,60,30.31,30.19,30.12,10,6,0,15,7,23,0.01,2,Fog,289
2012-12-4,59,44,28,56,50,26,100,92,88,30.32,30.22,30.04,10,6,2,12,4,16,0.06,5,Rain,172
2012-12-5,57,47,36,53,38,20,90,65,43,30.20,30.02,29.93,10,10,9,20,12,30,0.01,4,Rain,293
2012-12-6,39,28,18,20,17,13,84,60,45,30.36,30.31,30.21,10,10,10,18,9,25,0.00,0,,350
2012-12-7,48,33,18,46,36,14,100,84,58,30.30,30.17,30.05,10,9,3,7,1,,0.06,7,Rain,215
2012-12-8,54,50,46,52,48,45,100,94,89,30.05,29.96,29.88,9,4,0,9,2,,0.64,8,Fog-Rain,267
2012-12-9,50,46,42,49,44,36,100,89,66,30.26,30.14,30.02,10,5,0,12,4,20,0.22,6,Fog-Rain,16
2012-12-10,59,55,51,58,55,48,100,96,88,30.03,29.75,29.58,9,2,0,15,9,24,1.21,8,Fog-Rain,213
2012-12-11,54,44,32,54,41,28,100,83,58,30.21,29.83,29.58,10,8,1,14,8,21,0.07,7,Rain,313
2012-12-12,43,34,26,30,25,23,92,76,47,30.45,30.37,30.21,10,10,10,10,1,,0.00,0,,330
2012-12-13,46,34,21,29,23,18,89,72,44,30.48,30.42,30.34,10,10,10,9,2,,0.00,0,,30
2012-12-14,48,34,19,31,22,14,85,70,46,30.32,30.23,30.14,10,10,10,16,3,23,0.00,0,,256
2012-12-15,46,34,21,32,25,16,89,70,46,30.33,30.28,30.24,10,10,10,8,2,,0.00,0,,24
2012-12-16,46,45,44,44,40,32,93,82,63,30.25,30.09,29.92,10,6,2,17,10,26,0.28,8,Rain,88
2012-12-17,51,48,44,50,45,43,96,93,89,29.91,29.84,29.68,10,4,1,13,10,21,0.45,8,Rain,54
2012-12-18,55,50,45,53,47,36,96,86,68,29.64,29.52,29.47,10,8,2,17,10,31,0.73,6,Rain,251
2012-12-19,48,44,37,35,28,25,73,53,41,30.09,29.79,29.58,10,10,10,23,14,38,0.00,1,,308
2012-12-20,46,37,28,39,31,22,82,66,53,30.23,30.11,29.94,10,10,10,14,8,23,0.01,4,Rain,86
2012-12-21,57,48,39,55,45,25,100,82,55,29.91,29.34,29.16,10,6,1,30,18,45,0.65,8,Rain,167
2012-12-22,41,38,36,30,21,16,76,53,38,29.79,29.54,29.34,10,10,9,28,18,40,0.00,5,Snow,282
2012-12-23,44,32,19,25,20,14,78,56,42,29.96,29.91,29.82,10,10,10,16,10,23,0.00,1,,254
2012-12-24,41,28,15,34,22,11,93,72,45,30.11,30.04,29.96,10,9,2,7,1,,0.06,3,Rain-Snow,45
2012-12-25,41,36,32,39,32,21,93,82,64,30.25,30.04,29.91,10,8,5,15,8,21,0.19,6,Rain,1
2012-12-26,45,36,27,42,28,18,90,76,64,30.29,30.09,29.53,10,9,4,24,10,41,0.46,5,Rain,49
2012-12-27,48,42,34,45,38,23,93,84,64,29.74,29.39,29.22,10,6,2,26,20,44,0.54,8,Rain,355
2012-12-28,39,31,19,23,20,17,89,64,49,30.09,29.98,29.78,10,10,10,21,13,33,0.00,1,,312
2012-12-29,39,30,21,36,30,18,93,87,78,30.05,29.69,29.43,10,6,1,17,6,28,0.61,6,Rain-Snow,14
2012-12-30,34,31,28,31,21,12,92,66,49,30.12,29.82,29.52,10,10,3,24,15,33,0.00,2,Snow,306
2012-12-31,39,32,24,24,19,12,65,59,49,30.18,30.06,29.87,10,10,10,17,11,25,0.00,2,,254